Time;durP1;ratioP1;P1;durP2;ratioP2;P2;SDS_P1;SDS_P2;PMS_P1;PMS_P2;Temp;Humidity;BMP_temperature;BMP_pressure;BME280_temperature;BME280_humidity;BME280_pressure;Samples;Min_cycle;Max_cycle;Signal;HPM_P1;HPM_P2
2022/01/23 00:01:48;;;;;;;22.00;13.83;;;;;;;-5.46;100.00;99106.28;1655542;86;20960;-69
2022/01/23 00:04:09;;;;;;;;;;;;;;;-5.47;100.00;99105.44;1658771;86;20984;-71
2022/01/23 00:06:35;;;;;;;20.62;13.43;;;;;;;-5.45;100.00;99110.52;1656954;86;21160;-70
2022/01/23 00:09:03;;;;;;;17.15;13.48;;;;;;;-5.47;100.00;99108.05;1655631;86;21549;-70
2022/01/23 00:11:31;;;;;;;22.87;14.27;;;;;;;-5.47;100.00;99108.05;1658016;86;20967;-71
2022/01/23 00:19:12;;;;;;;101.82;77.08;;;;;;;-5.45;100.00;99103.98;1658189;86;21151;-71
2022/01/23 00:21:40;;;;;;;;;;;;;;;-5.44;100.00;99111.67;1660273;85;20963;-71
2022/01/23 00:32:08;;;;;;;72.53;46.58;;;;;;;-5.50;100.00;99090.08;1657372;86;21812;-72
2022/01/23 00:34:35;;;;;;;299.17;111.85;;;;;;;-5.49;100.00;99107.89;1658246;86;20927;-71
2022/01/23 00:37:02;;;;;;;307.07;105.22;;;;;;;-5.49;100.00;99110.01;1630691;86;21533;-71
2022/01/23 00:39:31;;;;;;;243.15;80.50;;;;;;;-5.49;100.00;99114.42;1657934;85;20885;-71
2022/01/23 00:41:58;;;;;;;195.15;73.47;;;;;;;-5.49;100.00;99105.27;1657699;85;20976;-70
2022/01/23 00:44:27;;;;;;;276.82;104.65;;;;;;;-5.52;100.00;99101.19;1657991;86;21085;-72
2022/01/23 00:46:53;;;;;;;362.10;148.38;;;;;;;-5.51;100.00;99107.23;1658199;85;20916;-69
2022/01/23 00:49:25;;;;;;;303.05;120.75;;;;;;;-5.52;100.00;99110.34;1658469;85;20944;-71
2022/01/23 00:51:53;;;;;;;359.60;143.52;;;;;;;-5.52;100.00;99114.27;1657799;85;20904;-71
2022/01/23 00:54:19;;;;;;;155.35;63.00;;;;;;;-5.53;100.00;99112.64;1657293;86;20952;-68
2022/01/23 00:56:46;;;;;;;40.85;25.15;;;;;;;-5.54;100.00;99112.30;1657410;85;21159;-70
2022/01/23 00:59:13;;;;;;;36.98;21.02;;;;;;;-5.55;100.00;99107.24;1657265;85;20908;-72
2022/01/23 01:01:40;;;;;;;32.35;19.32;;;;;;;-5.56;100.00;99112.13;1657914;85;21498;-72
2022/01/23 01:04:07;;;;;;;33.70;20.43;;;;;;;-5.56;100.00;99113.44;1658481;86;21002;-70
2022/01/23 01:06:35;;;;;;;20.92;13.43;;;;;;;-5.56;100.00;99114.28;1658878;86;21514;-70
2022/01/23 01:09:03;;;;;;;31.00;18.80;;;;;;;-5.55;100.00;99116.39;1658605;86;21150;-70
2022/01/23 01:11:54;;;;;;;34.13;16.95;;;;;;;-5.53;100.00;99111.33;1658248;86;20908;-70
2022/01/23 01:30:25;;;;;;;46.02;25.80;;;;;;;-5.46;100.00;99111.02;1652601;86;21114;-70
2022/01/23 01:32:58;;;;;;;50.23;29.18;;;;;;;-5.45;100.00;99120.98;1632380;86;20913;-70
2022/01/23 01:35:26;;;;;;;;;;;;;;;-5.45;100.00;99120.98;1654321;86;21178;-70
2022/01/23 01:37:49;;;;;;;59.23;33.08;;;;;;;-5.45;100.00;99120.48;1656889;85;20102;-70
2022/01/23 01:40:16;;;;;;;143.90;68.40;;;;;;;-5.44;100.00;99123.45;1657696;86;21553;-70
2022/01/23 01:42:44;;;;;;;189.52;92.12;;;;;;;-5.45;100.00;99119.18;1653190;86;20922;-70
2022/01/23 01:45:12;;;;;;;63.08;36.00;;;;;;;-5.44;100.00;99126.06;1652492;86;20956;-69
2022/01/23 01:47:53;;;;;;;135.10;67.12;;;;;;;-5.43;100.00;99122.95;1652896;86;21179;-71
2022/01/23 01:50:20;;;;;;;44.18;22.82;;;;;;;-5.42;100.00;99128.50;1656692;86;20878;-70
2022/01/23 01:52:47;;;;;;;135.20;74.53;;;;;;;-5.44;100.00;99126.06;1632816;86;20916;-70
2022/01/23 01:55:22;;;;;;;30.70;19.52;;;;;;;-5.44;100.00;99132.60;1653600;86;20999;-69
2022/01/23 01:57:55;;;;;;;29.15;22.65;;;;;;;-5.44;100.00;99133.91;1652356;86;21451;-72
2022/01/23 02:00:43;;;;;;;17.12;11.90;;;;;;;-5.44;100.00;99140.91;1609474;88;21359;-70
2022/01/23 02:08:33;;;;;;;10.78;8.80;;;;;;;-5.42;100.00;99140.27;1547318;91;21600;-72
2022/01/23 02:11:16;;;;;;;12.75;10.65;;;;;;;-5.41;100.00;99136.20;1566419;91;20945;-71
2022/01/23 02:13:52;;;;;;;10.43;8.55;;;;;;;-5.40;100.00;99144.36;1606753;88;21482;-70
2022/01/23 02:54:53;;;;;;;83.90;30.35;;;;;;;-5.91;100.00;99190.61;1648482;87;21147;-70
2022/01/23 02:57:19;;;;;;;115.90;36.30;;;;;;;-5.96;100.00;99184.27;1656916;86;20917;-71
2022/01/23 02:59:40;;;;;;;;;;;;;;;-6.02;100.00;99178.37;1661661;86;20968;-70
2022/01/23 03:05:00;;;;;;;54.15;25.88;;;;;;;-6.11;100.00;99192.68;1564429;89;21031;-69
2022/01/23 03:07:53;;;;;;;25.27;16.67;;;;;;;-6.12;100.00;99200.69;1555051;90;21189;-71
2022/01/23 03:10:17;;;;;;;23.47;15.83;;;;;;;-6.14;100.00;99204.75;1552579;90;21550;-71
2022/01/23 03:26:24;;;;;;;24.47;15.30;;;;;;;-5.97;100.00;99241.44;1578819;89;20951;-70
2022/01/23 03:29:20;;;;;;;26.37;14.53;;;;;;;-6.15;100.00;99264.98;1575729;90;21073;-69
2022/01/23 03:31:44;;;;;;;23.20;15.35;;;;;;;-6.34;100.00;99264.72;1567738;90;21133;-71
2022/01/23 03:34:11;;;;;;;;;;;;;;;-6.48;100.00;99279.13;1587603;90;21973;-70
2022/01/23 03:36:38;;;;;;;25.48;13.95;;;;;;;-6.62;100.00;99283.57;1572654;90;20527;-71
2022/01/23 03:39:09;;;;;;;21.65;13.85;;;;;;;-6.72;100.00;99286.26;1579576;90;20931;-69
2022/01/23 03:41:41;;;;;;;26.65;15.93;;;;;;;-6.81;100.00;99289.30;1614998;84;21043;-70
2022/01/23 03:44:11;;;;;;;21.25;15.30;;;;;;;-6.90;100.00;99298.81;1680407;85;20941;-70
2022/01/23 03:49:32;;;;;;;24.87;16.87;;;;;;;-7.13;100.00;99294.52;1685660;85;20941;-70
2022/01/23 03:52:08;;;;;;;24.72;16.30;;;;;;;-7.19;100.00;99296.88;1685436;85;24795;-70
2022/01/23 03:54:37;;;;;;;23.20;15.05;;;;;;;-7.26;100.00;99304.45;1685462;85;21135;-71
2022/01/23 03:57:04;;;;;;;25.05;15.40;;;;;;;-7.34;100.00;99313.01;1690704;84;20925;-69
2022/01/23 03:59:32;;;;;;;21.77;16.02;;;;;;;-7.42;100.00;99319.90;1693477;84;21168;-69
2022/01/23 04:01:59;;;;;;;29.45;15.00;;;;;;;-7.52;100.00;99318.66;1693627;84;20857;-69
2022/01/23 04:04:41;;;;;;;25.68;16.02;;;;;;;-7.62;100.00;99315.25;1693446;84;21490;-69
2022/01/23 04:07:21;;;;;;;27.05;15.48;;;;;;;-7.68;100.00;99322.36;1693406;84;20945;-70
2022/01/23 04:09:49;;;;;;;26.85;15.78;;;;;;;-7.75;100.00;99323.39;1692143;84;20873;-69
2022/01/23 04:12:35;;;;;;;30.23;16.20;;;;;;;-7.81;100.00;99335.22;1694557;84;22062;-70
2022/01/23 04:14:56;;;;;;;27.07;17.75;;;;;;;-7.83;100.00;99335.02;1681354;85;21471;-70
2022/01/23 04:20:21;;;;;;;;;;;;;;;-7.88;100.00;99343.25;1689339;85;20905;-70
2022/01/23 05:00:34;;;;;;;23.73;15.95;;;;;;;-8.68;100.00;99448.03;1686768;85;20896;-70
2022/01/23 05:03:47;;;;;;;29.15;16.30;;;;;;;-8.68;100.00;99458.44;1686178;84;20972;-71
2022/01/23 05:05:59;;;;;;;31.50;16.85;;;;;;;-8.66;100.00;99468.72;1660739;86;21154;-70
2022/01/23 05:08:20;;;;;;;33.48;18.17;;;;;;;-8.67;100.00;99463.16;1662438;85;20876;-70
2022/01/23 05:10:58;;;;;;;27.13;17.37;;;;;;;-8.66;100.00;99463.52;1644196;84;20940;-70
2022/01/23 05:13:35;;;;;;;22.65;14.55;;;;;;;-8.67;100.00;99473.56;1650669;85;20893;-70
2022/01/23 05:16:03;;;;;;;22.20;14.78;;;;;;;-8.69;100.00;99470.30;1688806;85;20971;-69
2022/01/23 05:18:34;;;;;;;25.90;14.87;;;;;;;-8.71;100.00;99473.50;1665674;85;20981;-69
2022/01/23 05:21:31;;;;;;;27.25;17.80;;;;;;;-8.72;100.00;99475.74;1685592;85;20949;-69
2022/01/23 05:23:35;;;;;;;22.50;14.50;;;;;;;-8.72;100.00;99474.44;1682785;85;20933;-69
2022/01/23 05:26:04;;;;;;;22.90;15.38;;;;;;;-8.73;100.00;99478.02;1684046;85;20919;-71
2022/01/23 05:28:31;;;;;;;24.25;14.45;;;;;;;-8.72;100.00;99486.15;1684151;85;20912;-69
2022/01/23 05:30:57;;;;;;;29.52;17.48;;;;;;;-8.73;100.00;99490.54;1685793;85;21154;-70
2022/01/23 05:33:24;;;;;;;29.02;15.80;;;;;;;-8.73;100.00;99487.12;1686380;85;20865;-70
2022/01/23 05:35:51;;;;;;;30.17;17.40;;;;;;;-8.73;100.00;99493.62;1657862;86;20909;-71
2022/01/23 05:38:18;;;;;;;27.95;17.48;;;;;;;-8.73;100.00;99494.44;1685032;85;20948;-70
2022/01/23 05:40:45;;;;;;;27.22;14.28;;;;;;;-8.73;100.00;99500.95;1657019;86;20941;-70
2022/01/23 05:43:12;;;;;;;31.02;17.82;;;;;;;-8.74;100.00;99508.42;1672923;84;21174;-70
2022/01/23 05:45:41;;;;;;;28.47;16.35;;;;;;;-8.75;100.00;99519.77;1689663;84;20948;-70
2022/01/23 05:48:09;;;;;;;;;;;;;;;-8.74;100.00;99521.91;1693175;84;21459;-70
2022/01/23 05:50:54;;;;;;;31.35;16.75;;;;;;;-8.73;100.00;99537.86;1691071;84;20146;-69
2022/01/23 05:53:39;;;;;;;23.87;15.72;;;;;;;-8.72;100.00;99535.14;1689520;84;21573;-69
2022/01/23 05:56:24;;;;;;;26.52;16.48;;;;;;;-8.72;100.00;99540.80;1688902;84;21149;-69
2022/01/23 05:58:53;;;;;;;32.70;18.62;;;;;;;-8.73;100.00;99538.67;1679974;85;20973;-69
2022/01/23 06:01:22;;;;;;;37.42;20.10;;;;;;;-8.74;100.00;99540.12;1681167;85;22526;-69
2022/01/23 06:03:50;;;;;;;50.85;25.50;;;;;;;-8.75;100.00;99547.08;1681903;85;24037;-70
2022/01/23 06:06:18;;;;;;;42.98;23.05;;;;;;;-8.75;100.00;99547.56;1681856;85;20869;-70
2022/01/23 06:08:45;;;;;;;47.90;25.15;;;;;;;-8.81;100.00;99554.61;1681814;85;21139;-70
2022/01/23 06:11:12;;;;;;;57.83;25.57;;;;;;;-8.88;100.00;99541.28;1680674;85;20893;-71
2022/01/23 06:13:40;;;;;;;49.13;22.93;;;;;;;-8.93;100.00;99543.45;1681468;85;26562;-70
2022/01/23 06:16:09;;;;;;;50.55;25.40;;;;;;;-8.93;100.00;99553.38;1680893;85;21468;-70
2022/01/23 06:18:40;;;;;;;44.45;25.08;;;;;;;-8.93;100.00;99552.55;1680807;85;21003;-71
2022/01/23 06:21:26;;;;;;;39.35;22.87;;;;;;;-8.98;100.00;99549.03;1690252;83;21137;-70
2022/01/23 06:24:07;;;;;;;28.07;17.57;;;;;;;-8.96;100.00;99564.53;1680816;84;20913;-70
2022/01/23 06:26:56;;;;;;;37.78;21.62;;;;;;;-9.00;100.00;99561.34;1681681;83;20901;-68
2022/01/23 06:29:24;;;;;;;47.03;25.95;;;;;;;-9.05;100.00;99557.00;1688651;83;21036;-69
2022/01/23 06:31:53;;;;;;;42.08;23.47;;;;;;;-9.09;100.00;99572.05;1696957;83;21061;-68
2022/01/23 06:34:20;;;;;;;45.40;23.75;;;;;;;-9.13;100.00;99577.14;1682813;83;21571;-69
2022/01/23 06:36:50;;;;;;;71.70;34.15;;;;;;;-9.14;100.00;99583.77;1674983;84;20910;-70
2022/01/23 06:39:15;;;;;;;71.53;33.78;;;;;;;-9.10;100.00;99587.77;1676474;84;21510;-68
2022/01/23 06:41:42;;;;;;;40.83;20.68;;;;;;;-8.99;100.00;99588.17;1676692;84;20982;-70
2022/01/23 06:44:26;;;;;;;29.35;17.00;;;;;;;-8.88;100.00;99586.80;1667631;84;20985;-68
2022/01/23 06:46:54;;;;;;;28.45;15.45;;;;;;;-8.77;100.00;99593.70;1682313;84;21154;-70
2022/01/23 06:49:22;;;;;;;;;;;;;;;-8.68;100.00;99600.73;1678319;84;20970;-70
2022/01/23 06:51:51;;;;;;;28.02;16.77;;;;;;;-8.63;100.00;99604.59;1669644;86;20224;-68
2022/01/23 06:54:20;;;;;;;29.60;18.87;;;;;;;-8.55;100.00;99609.14;1677577;84;20953;-67
2022/01/23 06:56:47;;;;;;;37.08;20.62;;;;;;;-8.48;100.00;99622.48;1667914;86;21648;-68
2022/01/23 06:59:14;;;;;;;47.78;24.72;;;;;;;-8.47;100.00;99623.66;1629419;86;21150;-68
2022/01/23 07:01:47;;;;;;;35.88;21.12;;;;;;;-8.45;100.00;99622.20;1634362;87;20978;-72
2022/01/23 07:04:24;;;;;;;38.20;20.75;;;;;;;-8.42;100.00;99622.78;1639391;86;21009;-69
2022/01/23 07:07:03;;;;;;;27.58;18.98;;;;;;;-8.40;100.00;99631.78;1643532;85;20984;-69
2022/01/23 07:09:43;;;;;;;43.73;22.98;;;;;;;-8.43;100.00;99648.48;1587055;88;21580;-69
2022/01/23 07:12:14;;;;;;;;;;;;;;;-8.37;100.00;99652.80;1577128;88;21186;-67
2022/01/23 07:15:07;;;;;;;40.73;21.37;;;;;;;-8.30;100.00;99662.55;1585635;88;20135;-69
2022/01/23 07:17:52;;;;;;;31.30;17.85;;;;;;;-8.19;100.00;99670.27;1583928;89;20982;-69
2022/01/23 07:20:26;;;;;;;33.35;18.37;;;;;;;-8.07;100.00;99675.39;1582496;88;21018;-69
2022/01/23 07:22:58;;;;;;;33.83;19.35;;;;;;;-7.94;100.00;99675.98;1586264;88;21625;-70
2022/01/23 07:25:27;;;;;;;35.00;20.08;;;;;;;-7.88;100.00;99675.95;1578494;89;21162;-68
2022/01/23 07:27:57;;;;;;;40.45;20.77;;;;;;;-7.76;100.00;99674.88;1581790;88;20962;-69
2022/01/23 07:30:33;;;;;;;28.95;17.87;;;;;;;-7.71;100.00;99681.00;1590182;89;20922;-69
2022/01/23 07:32:51;;;;;;;32.55;17.48;;;;;;;-7.70;100.00;99690.46;1597425;88;21062;-68
2022/01/23 07:35:18;;;;;;;32.10;18.27;;;;;;;-7.63;100.00;99691.58;1597112;89;21632;-71
2022/01/23 07:37:46;;;;;;;40.20;20.13;;;;;;;-7.55;100.00;99699.06;1596338;89;21963;-69
2022/01/23 07:40:31;;;;;;;44.25;25.85;;;;;;;-7.58;100.00;99701.13;1580177;89;21843;-69
2022/01/23 07:43:05;;;;;;;;;;;;;;;-7.47;100.00;99702.33;1588010;89;20994;-69
2022/01/23 07:45:38;;;;;;;47.00;23.90;;;;;;;-7.35;100.00;99712.13;1586229;86;20158;-69
2022/01/23 07:48:10;;;;;;;53.13;29.63;;;;;;;-7.28;100.00;99715.86;1645334;86;20929;-66
2022/01/23 07:50:42;;;;;;;39.10;23.57;;;;;;;-7.31;100.00;99725.27;1646509;85;21815;-71
2022/01/23 07:53:16;;;;;;;35.98;19.25;;;;;;;-7.32;100.00;99728.84;1639330;86;20941;-68
2022/01/23 07:55:45;;;;;;;48.92;25.62;;;;;;;-7.36;100.00;99730.88;1653865;85;21672;-70
2022/01/23 07:58:23;;;;;;;;;;;;;;;-7.36;100.00;99735.27;1660066;84;20882;-70
2022/01/23 08:01:06;;;;;;;46.53;21.12;;;;;;;-7.34;100.00;99738.09;1663393;86;20122;-72
2022/01/23 08:03:35;;;;;;;39.33;20.57;;;;;;;-7.33;100.00;99744.13;1675301;84;21154;-68
2022/01/23 08:06:16;;;;;;;47.20;27.30;;;;;;;-7.35;100.00;99743.43;1664595;84;21137;-70
2022/01/23 08:08:43;;;;;;;35.55;21.40;;;;;;;-7.28;100.00;99745.03;1675140;84;20899;-69
2022/01/23 08:11:14;;;;;;;35.20;19.55;;;;;;;-7.23;100.00;99753.28;1690769;84;21002;-69
2022/01/23 08:13:40;;;;;;;40.75;23.67;;;;;;;-7.24;100.00;99754.25;1692679;84;20879;-69
2022/01/23 08:16:07;;;;;;;31.15;17.85;;;;;;;-7.12;100.00;99761.00;1691772;84;21152;-70
2022/01/23 08:18:34;;;;;;;22.80;15.93;;;;;;;-7.12;100.00;99763.12;1691154;84;20887;-70
2022/01/23 08:21:01;;;;;;;33.20;20.62;;;;;;;-7.12;100.00;99764.91;1692499;84;20911;-70
2022/01/23 08:23:27;;;;;;;30.12;19.32;;;;;;;-7.08;100.00;99774.58;1675265;83;20958;-71
2022/01/23 08:25:54;;;;;;;33.83;16.48;;;;;;;-7.02;100.00;99780.58;1664362;86;21432;-71
2022/01/23 08:28:21;;;;;;;28.65;16.57;;;;;;;-7.00;100.00;99792.53;1664745;84;21792;-70
2022/01/23 08:30:47;;;;;;;22.10;13.68;;;;;;;-6.91;100.00;99793.48;1667992;83;20930;-70
2022/01/23 08:33:14;;;;;;;32.05;19.20;;;;;;;-6.86;100.00;99795.70;1681791;83;20910;-70
2022/01/23 08:35:43;;;;;;;32.88;21.17;;;;;;;-6.66;100.00;99801.75;1684346;83;20955;-71
2022/01/23 08:38:13;;;;;;;35.83;17.98;;;;;;;-6.41;100.00;99805.13;1670421;83;20994;-68
2022/01/23 08:43:13;;;;;;;27.73;14.85;;;;;;;-5.95;100.00;99820.55;1659227;86;20900;-68
2022/01/23 08:45:40;;;;;;;19.25;11.95;;;;;;;-5.86;100.00;99808.38;1696084;83;21030;-68
2022/01/23 08:48:07;;;;;;;28.77;17.42;;;;;;;-5.95;100.00;99814.48;1704789;83;20949;-70
2022/01/23 08:50:35;;;;;;;20.88;17.00;;;;;;;-5.63;100.00;99824.08;1697977;83;21049;-69
2022/01/23 08:53:01;;;;;;;33.15;20.65;;;;;;;-5.61;100.00;99822.61;1690157;83;22291;-69
2022/01/23 08:55:28;;;;;;;28.62;15.58;;;;;;;-5.09;100.00;99839.14;1686140;83;20914;-71
2022/01/23 08:57:55;;;;;;;23.40;15.05;;;;;;;-4.69;100.00;99837.94;1688866;83;20956;-70
2022/01/23 09:00:22;;;;;;;28.75;17.20;;;;;;;-4.71;100.00;99840.69;1695981;83;20984;-69
2022/01/23 09:02:50;;;;;;;17.40;12.10;;;;;;;-5.05;100.00;99835.25;1723069;83;21557;-69
2022/01/23 09:05:18;;;;;;;22.77;13.62;;;;;;;-5.48;100.00;99842.75;1689222;83;21153;-70
2022/01/23 09:07:45;;;;;;;20.27;14.28;;;;;;;-5.72;100.00;99851.56;1683638;83;20992;-69
2022/01/23 09:10:13;;;;;;;18.48;11.73;;;;;;;-5.95;100.00;99854.53;1676473;83;20965;-70
2022/01/23 09:12:57;;;;;;;36.28;18.65;;;;;;;-6.06;100.00;99858.11;1657453;85;20987;-71
2022/01/23 09:15:13;;;;;;;52.85;24.80;;;;;;;-6.02;100.00;99865.20;1665545;85;20968;-69
2022/01/23 09:17:41;;;;;;;27.20;16.45;;;;;;;-5.82;100.00;99866.78;1658918;84;21083;-68
2022/01/23 09:20:09;;;;;;;31.20;18.30;;;;;;;-5.61;100.00;99874.45;1661885;84;20942;-69
2022/01/23 09:22:37;;;;;;;20.08;13.18;;;;;;;-5.51;100.00;99870.50;1658492;85;21009;-68
2022/01/23 09:25:05;;;;;;;26.42;16.15;;;;;;;-5.56;100.00;99868.80;1653387;86;20926;-67
2022/01/23 09:27:33;;;;;;;25.72;17.12;;;;;;;-5.66;100.00;99883.21;1654987;85;20930;-68
2022/01/23 09:30:06;;;;;;;20.70;13.60;;;;;;;-5.58;100.00;99883.80;1670498;84;21097;-66
2022/01/23 09:32:29;;;;;;;28.32;15.63;;;;;;;-5.75;100.00;99884.05;1662129;85;21550;-68
2022/01/23 09:34:57;;;;;;;27.07;15.38;;;;;;;-5.86;100.00;99888.11;1634709;87;20907;-68
2022/01/23 09:37:24;;;;;;;42.05;20.72;;;;;;;-5.78;100.00;99886.95;1651676;84;20997;-67
2022/01/23 09:39:51;;;;;;;21.35;13.20;;;;;;;-5.53;100.00;99892.55;1672711;85;20961;-68
2022/01/23 09:42:26;;;;;;;22.32;14.18;;;;;;;-5.16;100.00;99901.71;1671172;85;21556;-69
2022/01/23 09:44:59;;;;;;;28.17;16.82;;;;;;;-4.99;100.00;99902.25;1660683;85;21681;-67
2022/01/23 09:47:26;;;;;;;33.00;17.57;;;;;;;-5.06;100.00;99903.80;1658916;85;20965;-69
2022/01/23 09:49:54;;;;;;;31.52;19.82;;;;;;;-5.16;100.00;99912.17;1657809;85;21546;-70
2022/01/23 09:52:23;;;;;;;24.75;14.87;;;;;;;-5.24;100.00;99910.77;1653384;85;20922;-70
2022/01/23 09:55:00;;;;;;;26.02;14.73;;;;;;;-5.20;100.00;99912.11;1653818;86;21183;-70
2022/01/23 09:57:30;;;;;;;20.12;13.60;;;;;;;-5.31;100.00;99914.44;1653650;86;20989;-70
2022/01/23 09:59:58;;;;;;;25.37;15.38;;;;;;;-5.33;100.00;99918.16;1653540;86;20942;-71
2022/01/23 10:02:24;;;;;;;36.05;19.15;;;;;;;-5.30;100.00;99918.69;1654110;86;20898;-70
2022/01/23 10:04:52;;;;;;;32.90;17.02;;;;;;;-5.22;100.00;99931.05;1653996;86;21472;-70
2022/01/23 10:07:19;;;;;;;22.02;14.78;;;;;;;-5.19;100.00;99938.16;1654377;86;21487;-70
2022/01/23 10:09:52;;;;;;;24.12;15.15;;;;;;;-5.29;100.00;99937.82;1653847;86;21029;-71
2022/01/23 10:12:15;;;;;;;16.27;11.65;;;;;;;-5.40;100.00;99938.83;1653672;86;20905;-69
2022/01/23 10:14:41;;;;;;;43.78;20.82;;;;;;;-5.45;100.00;99938.42;1632341;86;20981;-70
2022/01/23 10:17:09;;;;;;;29.70;21.40;;;;;;;-5.55;100.00;99945.47;1654510;86;20993;-70
2022/01/23 10:19:39;;;;;;;17.73;12.58;;;;;;;-5.54;100.00;99944.00;1654142;86;21143;-69
2022/01/23 10:22:08;;;;;;;32.83;17.65;;;;;;;-5.55;100.00;99943.67;1632921;86;20985;-71
2022/01/23 10:24:37;;;;;;;;;;;;;;;-5.55;100.00;99943.67;1633546;86;20989;-71
2022/01/23 10:27:05;;;;;;;28.67;19.92;;;;;;;-5.49;100.00;99942.28;1654490;86;22005;-71
2022/01/23 10:29:35;;;;;;;23.10;14.93;;;;;;;-5.45;100.00;99948.41;1653955;86;21483;-69
2022/01/23 10:32:23;;;;;;;23.35;17.67;;;;;;;-5.45;100.00;99960.17;1654412;86;21210;-70
2022/01/23 10:34:55;;;;;;;21.05;14.13;;;;;;;-5.45;100.00;99963.28;1652837;86;20974;-69
2022/01/23 10:46:55;;;;;;;28.30;18.45;;;;;;;-5.14;100.00;99956.52;1654888;86;20914;-71
2022/01/23 10:49:07;;;;;;;41.15;22.48;;;;;;;-4.97;100.00;99962.34;1651731;85;21951;-71
2022/01/23 10:52:34;;;;;;;51.65;30.80;;;;;;;-4.81;100.00;99968.25;1654689;86;21048;-70
2022/01/23 10:55:17;;;;;;;32.90;16.75;;;;;;;-4.68;100.00;99966.11;1654386;86;20957;-71
2022/01/23 10:57:45;;;;;;;28.27;16.30;;;;;;;-4.39;100.00;99980.38;1652993;86;20965;-71
2022/01/23 11:08:42;;;;;;;30.62;19.75;;;;;;;-4.40;100.00;99989.71;1654879;86;21508;-71
2022/01/23 11:20:09;;;;;;;25.25;15.65;;;;;;;-4.91;100.00;100010.19;1654852;86;21951;-72
2022/01/23 11:26:14;;;;;;;20.68;14.43;;;;;;;-4.88;100.00;100021.67;1654387;86;21460;-71
2022/01/23 11:28:51;;;;;;;24.98;16.57;;;;;;;-4.85;100.00;100031.04;1654463;86;20890;-70
2022/01/23 11:31:19;;;;;;;26.30;18.82;;;;;;;-4.72;100.00;100036.80;1633870;86;20894;-70
2022/01/23 11:33:46;;;;;;;28.50;15.45;;;;;;;-4.65;100.00;100036.58;1654432;86;21008;-70
2022/01/23 11:50:45;;;;;;;33.55;21.52;;;;;;;-4.57;100.00;100061.56;1654631;86;20945;-71
2022/01/23 11:56:35;;;;;;;44.40;26.27;;;;;;;-4.65;100.00;100086.34;1654891;85;20870;-71
2022/01/23 11:59:28;;;;;;;46.28;25.75;;;;;;;-4.65;100.00;100088.97;1653560;86;21026;-71
2022/01/23 12:02:14;;;;;;;242.32;119.20;;;;;;;-4.62;100.00;100096.53;1654499;86;20918;-72
2022/01/23 12:05:20;;;;;;;78.80;42.83;;;;;;;-4.62;100.00;100097.84;1654284;86;20862;-71
2022/01/23 12:07:44;;;;;;;49.42;26.40;;;;;;;-4.70;100.00;100105.59;1653189;86;21225;-69
2022/01/23 12:10:31;;;;;;;;;;;;;;;-4.64;100.00;100114.18;1661310;85;21025;-71
2022/01/23 12:13:34;;;;;;;33.25;20.72;;;;;;;-4.63;100.00;100113.23;1662906;84;20416;-69
2022/01/23 12:18:40;;;;;;;33.95;18.90;;;;;;;-4.57;100.00;100125.75;1651501;86;20898;-70
2022/01/23 12:21:28;;;;;;;21.90;13.65;;;;;;;-4.69;100.00;100125.57;1659168;85;21066;-71
2022/01/23 12:24:06;;;;;;;24.63;14.43;;;;;;;-4.83;100.00;100137.30;1659711;85;20926;-70
2022/01/23 12:26:32;;;;;;;17.95;12.70;;;;;;;-4.80;100.00;100139.66;1668972;85;20965;-69
2022/01/23 12:29:18;;;;;;;20.27;15.10;;;;;;;-4.81;100.00;100143.72;1663733;85;20962;-68
2022/01/23 12:31:45;;;;;;;17.65;10.85;;;;;;;-4.94;100.00;100160.22;1652534;86;20906;-70
2022/01/23 12:34:13;;;;;;;17.95;12.13;;;;;;;-5.16;100.00;100173.92;1663839;85;21172;-70
2022/01/23 12:36:40;;;;;;;15.80;11.50;;;;;;;-5.24;100.00;100173.78;1661823;85;20875;-69
2022/01/23 12:39:13;;;;;;;20.95;12.40;;;;;;;-5.32;100.00;100179.67;1660248;85;20985;-71
2022/01/23 12:41:53;;;;;;;23.15;16.48;;;;;;;-5.38;100.00;100178.92;1661472;84;21471;-69
2022/01/23 12:44:37;;;;;;;25.48;14.00;;;;;;;-5.42;100.00;100192.73;1673843;85;21035;-72
2022/01/23 12:47:10;;;;;;;24.70;16.42;;;;;;;-5.45;100.00;100191.70;1663261;85;21239;-70
2022/01/23 12:49:52;;;;;;;31.17;17.85;;;;;;;-5.44;100.00;100197.76;1656811;85;21515;-70
2022/01/23 12:52:21;;;;;;;31.62;17.77;;;;;;;-5.47;100.00;100200.16;1664893;85;20985;-70
2022/01/23 12:54:58;;;;;;;28.55;16.30;;;;;;;-5.47;100.00;100199.34;1669672;85;20909;-71
2022/01/23 12:57:34;;;;;;;23.52;14.38;;;;;;;-5.51;100.00;100207.95;1660230;85;20989;-70
2022/01/23 13:00:03;;;;;;;26.82;17.35;;;;;;;-5.51;100.00;100201.88;1667309;83;21134;-68
2022/01/23 13:02:37;;;;;;;16.82;10.75;;;;;;;-5.58;100.00;100202.91;1668057;84;20906;-69
2022/01/23 13:05:01;;;;;;;18.98;13.25;;;;;;;-5.62;100.00;100209.36;1664912;84;20991;-69
2022/01/23 13:07:50;;;;;;;31.60;18.25;;;;;;;-5.56;100.00;100214.08;1666785;84;20916;-68
2022/01/23 13:15:22;;;;;;;25.45;16.73;;;;;;;-5.50;100.00;100216.14;1666146;84;20983;-68
2022/01/23 13:32:12;;;;;;;28.87;18.25;;;;;;;-5.66;100.00;100257.66;1660462;84;21022;-70
2022/01/23 13:34:40;;;;;;;36.75;21.05;;;;;;;-5.67;100.00;100265.17;1661464;84;21025;-71
2022/01/23 13:37:13;;;;;;;25.90;15.30;;;;;;;-5.64;100.00;100267.51;1671922;84;21591;-71
2022/01/23 13:39:50;;;;;;;25.80;16.77;;;;;;;-5.68;100.00;100263.03;1676775;84;21495;-70
2022/01/23 13:53:26;;;;;;;28.67;17.10;;;;;;;-5.78;100.00;100298.78;1649848;85;21151;-69
2022/01/23 14:01:09;;;;;;;18.92;11.65;;;;;;;-5.84;100.00;100323.64;1646615;86;20951;-70
2022/01/23 14:03:32;;;;;;;19.95;12.53;;;;;;;-5.85;100.00;100333.77;1641862;86;21103;-68
2022/01/23 14:05:59;;;;;;;20.35;13.30;;;;;;;-5.85;100.00;100335.55;1632881;88;21179;-69
2022/01/23 14:08:26;;;;;;;14.18;10.78;;;;;;;-5.85;100.00;100340.78;1637672;86;21017;-68
2022/01/23 14:10:53;;;;;;;25.50;17.48;;;;;;;-5.87;100.00;100340.90;1643372;86;20928;-70
2022/01/23 14:13:38;;;;;;;25.85;15.98;;;;;;;-5.88;100.00;100342.32;1636577;86;21591;-69
2022/01/23 14:16:04;;;;;;;34.38;19.20;;;;;;;-5.90;100.00;100337.73;1641156;86;20945;-70
2022/01/23 14:18:32;;;;;;;48.58;26.65;;;;;;;-5.90;100.00;100335.11;1649210;86;21146;-70
2022/01/23 14:21:05;;;;;;;33.42;20.57;;;;;;;-5.92;100.00;100333.92;1637456;86;20934;-70
2022/01/23 14:23:34;;;;;;;28.50;17.37;;;;;;;-5.94;100.00;100346.32;1634505;86;20966;-70
2022/01/23 14:26:15;;;;;;;26.12;17.57;;;;;;;-5.96;100.00;100346.92;1645516;86;20968;-69
2022/01/23 14:28:46;;;;;;;35.95;19.77;;;;;;;-5.97;100.00;100349.20;1636464;86;20886;-73
2022/01/23 14:31:18;;;;;;;25.90;14.23;;;;;;;-5.98;100.00;100363.20;1637407;86;21119;-70
2022/01/23 14:33:43;;;;;;;23.52;14.60;;;;;;;-6.03;100.00;100360.14;1638083;86;20902;-73
2022/01/23 14:36:19;;;;;;;28.20;16.93;;;;;;;-6.12;100.00;100366.98;1641375;86;21508;-70
2022/01/23 14:39:03;;;;;;;28.20;17.25;;;;;;;-6.17;100.00;100371.76;1636467;86;20952;-70
2022/01/23 14:41:33;;;;;;;24.63;12.10;;;;;;;-6.21;100.00;100373.44;1644713;86;21519;-71
2022/01/23 14:44:00;;;;;;;45.43;21.00;;;;;;;-6.27;100.00;100372.98;1639361;86;21543;-72
2022/01/23 14:46:29;;;;;;;55.63;25.20;;;;;;;-6.28;100.00;100381.77;1635851;86;20925;-71
2022/01/23 14:49:00;;;;;;;60.52;29.77;;;;;;;-6.29;100.00;100397.09;1634452;86;20993;-68
2022/01/23 14:51:26;;;;;;;49.42;26.12;;;;;;;-6.30;100.00;100398.03;1646200;86;21012;-69
2022/01/23 14:53:53;;;;;;;38.40;22.50;;;;;;;-6.30;100.00;100405.05;1642489;86;20973;-71
2022/01/23 14:56:20;;;;;;;37.55;20.57;;;;;;;-6.31;100.00;100412.06;1633092;86;21192;-70
2022/01/23 14:58:49;;;;;;;24.45;15.78;;;;;;;-6.32;100.00;100414.79;1643401;86;20984;-70
2022/01/23 15:01:25;;;;;;;29.05;17.32;;;;;;;-6.34;100.00;100416.72;1634349;85;20937;-69
2022/01/23 15:03:52;;;;;;;25.27;15.23;;;;;;;-6.37;100.00;100425.64;1615186;87;20972;-70
2022/01/23 15:06:22;;;;;;;25.48;18.07;;;;;;;-6.37;100.00;100435.23;1642246;86;20977;-73
2022/01/23 15:08:49;;;;;;;31.12;17.07;;;;;;;-6.39;100.00;100440.60;1635299;86;21134;-69
2022/01/23 15:11:17;;;;;;;22.98;15.35;;;;;;;-6.41;100.00;100423.39;1640373;86;20972;-70